createdAt,value
2022-08-19T00:02:07.077Z,97912.97
2022-08-19T00:04:37.719Z,97893.31
2022-08-19T00:07:08.690Z,97920.31
2022-08-19T00:09:35.634Z,97902.63
2022-08-19T00:12:03.208Z,97921.59
2022-08-19T00:14:33.003Z,97928.44
2022-08-19T00:17:00.999Z,97917.44
2022-08-19T00:19:31.371Z,97907.41
2022-08-19T00:21:58.353Z,97917.97
2022-08-19T00:24:29.853Z,97881.97
2022-08-19T00:26:58.048Z,97897.00
2022-08-19T00:29:44.961Z,97905.06
2022-08-19T00:32:13.140Z,97904.56
2022-08-19T00:34:40.617Z,97891.47
2022-08-19T00:37:07.535Z,97897.56
2022-08-19T00:39:35.282Z,97889.34
2022-08-19T00:42:02.349Z,97884.88
2022-08-19T00:44:31.487Z,97899.03
2022-08-19T00:47:01.083Z,97892.84
2022-08-19T00:49:58.300Z,97905.25
2022-08-19T00:52:30.191Z,97903.78
2022-08-19T00:54:58.628Z,97922.50
2022-08-19T00:57:31.001Z,97918.63
2022-08-19T01:00:03.120Z,97909.09
2022-08-19T01:02:32.059Z,97905.38
2022-08-19T01:05:00.554Z,97893.50
2022-08-19T01:07:27.375Z,97892.31
2022-08-19T01:09:56.490Z,97916.22
2022-08-19T01:12:23.998Z,97911.22
2022-08-19T01:14:51.776Z,97918.25
2022-08-19T01:17:20.224Z,97923.94
2022-08-19T01:19:47.945Z,97919.91
2022-08-19T01:22:30.203Z,97923.81
2022-08-19T01:24:59.955Z,97933.53
2022-08-19T01:27:29.590Z,97931.88
2022-08-19T01:30:02.282Z,97931.63
2022-08-19T01:32:33.984Z,97915.22
2022-08-19T01:35:03.187Z,97919.38
2022-08-19T01:37:31.564Z,97908.13
2022-08-19T01:40:02.375Z,97905.09
2022-08-19T01:42:33.260Z,97916.94
2022-08-19T01:45:00.409Z,97927.41
2022-08-19T01:47:29.877Z,97927.41
2022-08-19T01:49:56.618Z,97914.69
2022-08-19T01:52:23.228Z,97902.41
2022-08-19T01:54:49.841Z,97926.16
2022-08-19T01:57:16.877Z,97939.56
2022-08-19T01:59:45.867Z,97921.47
2022-08-19T02:02:12.588Z,97935.84
2022-08-19T02:04:39.781Z,97939.28
2022-08-19T02:07:08.082Z,97922.84
2022-08-19T02:09:35.145Z,97923.53
2022-08-19T02:12:01.818Z,97932.13
2022-08-19T02:14:30.695Z,97935.44
2022-08-19T02:16:57.334Z,97945.72
2022-08-19T02:19:24.021Z,97941.16
2022-08-19T02:21:50.636Z,97930.69
2022-08-19T02:24:17.576Z,97937.00
2022-08-19T02:26:44.223Z,97912.13
2022-08-19T02:29:10.834Z,97938.19
2022-08-19T02:31:37.520Z,97945.19
2022-08-19T02:34:04.316Z,97955.88
2022-08-19T02:36:33.928Z,97935.16
2022-08-19T02:39:03.163Z,97941.97
2022-08-19T02:41:34.503Z,97946.47
2022-08-19T02:44:30.052Z,97943.53
2022-08-19T02:46:52.486Z,97928.38
2022-08-19T02:49:20.144Z,97954.44
2022-08-19T02:51:47.015Z,97937.53
2022-08-19T02:54:15.325Z,97949.72
2022-08-19T02:56:44.171Z,97943.59
2022-08-19T02:59:12.124Z,97933.34
2022-08-19T03:01:43.349Z,97955.38
2022-08-19T03:04:12.389Z,97945.72
2022-08-19T03:06:41.154Z,97952.69
2022-08-19T03:09:08.629Z,97938.72
2022-08-19T03:11:38.110Z,97923.53
2022-08-19T03:14:07.115Z,97935.00
2022-08-19T03:16:50.109Z,97960.50
2022-08-19T03:19:18.974Z,97959.91
2022-08-19T03:21:46.443Z,97967.66
2022-08-19T03:24:14.988Z,97938.53
2022-08-19T03:26:45.767Z,97974.53
2022-08-19T03:29:13.370Z,97979.09
2022-08-19T03:31:52.190Z,97972.09
2022-08-19T03:34:27.554Z,97981.97
2022-08-19T03:36:56.308Z,97975.66
2022-08-19T03:39:24.962Z,97976.28
2022-08-19T03:42:32.062Z,97995.41
2022-08-19T03:44:39.836Z,97978.31
2022-08-19T03:47:06.680Z,97992.13
2022-08-19T03:49:36.176Z,97993.75
2022-08-19T03:52:06.621Z,98000.16
2022-08-19T03:54:33.254Z,98004.47
2022-08-19T03:57:00.427Z,97989.03
2022-08-19T03:59:30.512Z,97991.31
2022-08-19T04:02:00.002Z,97983.47
2022-08-19T04:04:29.008Z,97965.63
2022-08-19T04:06:56.844Z,98006.13
2022-08-19T04:09:23.540Z,98009.84
2022-08-19T04:11:55.060Z,98005.09
2022-08-19T04:14:25.042Z,98008.59
2022-08-19T04:16:52.696Z,98002.66
2022-08-19T04:19:20.140Z,98013.16
2022-08-19T04:21:50.174Z,98025.44
2022-08-19T04:24:17.708Z,98009.03
2022-08-19T04:26:44.846Z,98000.91
2022-08-19T04:29:20.819Z,98020.44
2022-08-19T04:31:47.634Z,98000.09
2022-08-19T04:34:16.240Z,98021.31
2022-08-19T04:36:45.619Z,98002.78
2022-08-19T04:39:17.877Z,98043.56
2022-08-19T04:42:04.049Z,98016.25
2022-08-19T04:44:36.446Z,98037.03
2022-08-19T04:47:11.697Z,98063.13
2022-08-19T04:49:41.540Z,98048.56
2022-08-19T04:52:09.394Z,98022.03
2022-08-19T04:54:38.818Z,98049.56
2022-08-19T04:57:09.701Z,98058.41
2022-08-19T04:59:55.015Z,98024.91
2022-08-19T05:02:25.654Z,98036.00
2022-08-19T05:05:02.178Z,98069.34
2022-08-19T05:07:29.177Z,98044.88
2022-08-19T05:09:58.545Z,98068.72
2022-08-19T05:12:29.099Z,98080.47
2022-08-19T05:14:57.931Z,98074.09
2022-08-19T05:17:38.674Z,98049.97
2022-08-19T05:20:28.560Z,98056.19
2022-08-19T05:22:56.013Z,98044.47
2022-08-19T05:25:23.494Z,98080.47
2022-08-19T05:27:50.728Z,98084.97
2022-08-19T05:30:18.572Z,98086.00
2022-08-19T05:32:47.272Z,98099.81
2022-08-19T05:35:13.866Z,98095.28
2022-08-19T05:37:41.724Z,98107.44
2022-08-19T05:40:12.241Z,98092.59
2022-08-19T05:42:40.161Z,98074.69
2022-08-19T05:45:08.804Z,98100.38
2022-08-19T05:47:36.571Z,98096.94
2022-08-19T05:50:11.994Z,98100.63
2022-08-19T05:52:45.927Z,98079.19
2022-08-19T05:55:23.634Z,98113.75
2022-08-19T05:57:50.233Z,98101.81
2022-08-19T06:00:20.431Z,98110.06
2022-08-19T06:02:52.739Z,98124.63
2022-08-19T06:05:21.326Z,98128.75
2022-08-19T06:07:48.294Z,98117.88
2022-08-19T06:10:15.190Z,98090.50
2022-08-19T06:12:42.055Z,98109.84
2022-08-19T06:15:14.896Z,98125.88
2022-08-19T06:17:45.186Z,98110.66
2022-08-19T06:20:15.404Z,98126.41
2022-08-19T06:22:45.018Z,98130.88
2022-08-19T06:25:12.856Z,98137.03
2022-08-19T06:28:11.512Z,98117.94
2022-08-19T06:30:29.661Z,98145.72
2022-08-19T06:32:56.204Z,98120.34
2022-08-19T06:35:22.947Z,98131.88
2022-08-19T06:37:49.490Z,98136.94
2022-08-19T06:40:16.119Z,98146.78
2022-08-19T06:42:50.955Z,98136.03
2022-08-19T06:45:21.517Z,98149.41
2022-08-19T06:47:52.683Z,98154.25
2022-08-19T06:50:19.719Z,98165.78
2022-08-19T06:52:47.850Z,98138.53
2022-08-19T06:55:18.460Z,98136.56
2022-08-19T06:57:47.192Z,98141.75
2022-08-19T07:00:14.985Z,98139.16
2022-08-19T07:02:49.561Z,98172.19
2022-08-19T07:05:22.881Z,98158.63
2022-08-19T07:07:49.528Z,98153.63
2022-08-19T07:10:17.779Z,98150.50
2022-08-19T07:12:45.357Z,98162.28
2022-08-19T07:15:12.573Z,98172.13
2022-08-19T07:17:44.277Z,98181.25
2022-08-19T07:20:11.864Z,98163.81
2022-08-19T07:22:40.170Z,98181.84
2022-08-19T07:25:10.448Z,98190.09
2022-08-19T07:27:40.390Z,98187.66
2022-08-19T07:30:11.678Z,98189.91
2022-08-19T07:32:43.384Z,98183.66
2022-08-19T07:35:10.718Z,98188.59
2022-08-19T07:37:40.645Z,98196.66
2022-08-19T07:40:10.562Z,98193.94
2022-08-19T07:42:37.267Z,98193.16
2022-08-19T07:45:04.600Z,98194.84
2022-08-19T07:47:47.915Z,98187.25
2022-08-19T07:50:19.576Z,98196.66
2022-08-19T07:52:49.049Z,98198.44
2022-08-19T07:55:41.061Z,98204.72
2022-08-19T07:58:11.266Z,98178.06
2022-08-19T08:00:40.545Z,98198.22
2022-08-19T08:03:07.258Z,98180.22
2022-08-19T08:05:52.403Z,98184.03
2022-08-19T08:08:27.670Z,98192.03
2022-08-19T08:10:56.862Z,98196.38
2022-08-19T08:13:25.683Z,98192.28
2022-08-19T08:15:54.688Z,98178.09
2022-08-19T08:18:23.262Z,98178.22
2022-08-19T08:20:55.640Z,98169.44
2022-08-19T08:23:26.800Z,98176.88
2022-08-19T08:25:57.594Z,98203.59
2022-08-19T08:28:26.166Z,98189.84
2022-08-19T08:30:56.642Z,98198.47
2022-08-19T08:33:32.741Z,98167.28
2022-08-19T08:36:09.467Z,98203.75
2022-08-19T08:38:41.237Z,98206.25
2022-08-19T08:41:15.206Z,98210.44
2022-08-19T08:43:44.584Z,98194.88
2022-08-19T08:46:32.348Z,98198.25
2022-08-19T08:49:19.660Z,98210.22
2022-08-19T08:51:59.329Z,98215.56
2022-08-19T08:54:32.990Z,98201.63
2022-08-19T08:57:03.381Z,98213.72
2022-08-19T08:59:36.243Z,98224.84
2022-08-19T09:02:03.213Z,98226.03
2022-08-19T09:04:29.971Z,98219.88
2022-08-19T09:07:26.256Z,98215.88
2022-08-19T09:10:30.615Z,98223.75
2022-08-19T09:13:09.458Z,98230.22
2022-08-19T09:15:45.416Z,98209.72
2022-08-19T09:18:15.415Z,98218.22
2022-08-19T09:20:48.383Z,98203.59
2022-08-19T09:23:16.080Z,98235.00
2022-08-19T09:25:43.115Z,98203.44
2022-08-19T09:28:21.987Z,98201.78
2022-08-19T09:30:49.954Z,98217.19
2022-08-19T09:33:20.573Z,98204.03
2022-08-19T09:35:49.775Z,98198.19
2022-08-19T09:38:21.521Z,98202.84
2022-08-19T09:40:48.086Z,98206.25
2022-08-19T09:43:14.663Z,98201.03
2022-08-19T09:45:41.645Z,98214.16
2022-08-19T09:48:09.540Z,98213.34
2022-08-19T09:50:52.055Z,98223.44
2022-08-19T09:53:19.779Z,98196.53
2022-08-19T09:55:46.365Z,98195.50
2022-08-19T09:58:12.924Z,98202.88
2022-08-19T10:00:40.781Z,98202.91
2022-08-19T10:03:07.338Z,98206.88
2022-08-19T10:05:50.627Z,98211.25
2022-08-19T10:08:34.917Z,98198.50
2022-08-19T10:11:28.586Z,98190.53
2022-08-19T10:13:50.605Z,98195.03
2022-08-19T10:16:20.993Z,98187.50
2022-08-19T10:18:49.519Z,98182.16
2022-08-19T10:21:22.587Z,98198.91
2022-08-19T10:23:55.712Z,98193.00
2022-08-19T10:26:31.041Z,98179.06
2022-08-19T10:28:58.125Z,98196.00
2022-08-19T10:32:00.510Z,98192.72
2022-08-19T10:34:27.011Z,98199.16
2022-08-19T10:36:56.501Z,98192.03
2022-08-19T10:39:30.605Z,98184.78
2022-08-19T10:41:57.903Z,98188.47
2022-08-19T10:44:31.928Z,98200.38
2022-08-19T10:47:00.273Z,98198.16
2022-08-19T10:49:28.004Z,98205.31
2022-08-19T10:52:17.513Z,98212.13
2022-08-19T10:55:05.171Z,98192.16
2022-08-19T11:00:24.225Z,98221.34
2022-08-19T11:02:51.391Z,98228.00
2022-08-19T11:05:18.744Z,98210.47
2022-08-19T11:07:46.413Z,98221.97
2022-08-19T11:10:19.552Z,98238.31
2022-08-19T11:12:48.333Z,98224.91
2022-08-19T11:15:15.196Z,98249.13
2022-08-19T11:17:44.238Z,98239.84
2022-08-19T11:20:15.576Z,98249.41
2022-08-19T11:22:43.231Z,98238.31
2022-08-19T11:25:14.663Z,98239.50
2022-08-19T11:27:44.498Z,98237.06
2022-08-19T11:30:14.042Z,98243.84
2022-08-19T11:32:47.049Z,98237.59
2022-08-19T11:35:16.886Z,98227.66
2022-08-19T11:37:43.451Z,98229.19
2022-08-19T11:40:10.640Z,98237.41
2022-08-19T11:42:56.560Z,98229.63
2022-08-19T11:45:29.068Z,98240.47
2022-08-19T11:47:56.471Z,98231.28
2022-08-19T11:50:24.558Z,98243.13
2022-08-19T11:52:55.031Z,98243.91
2022-08-19T11:55:22.158Z,98242.09
2022-08-19T11:57:48.821Z,98237.44
2022-08-19T12:00:16.540Z,98245.34
2022-08-19T12:02:46.422Z,98216.13
2022-08-19T12:05:16.117Z,98242.34
2022-08-19T12:07:43.700Z,98232.59
2022-08-19T12:10:10.881Z,98250.13
2022-08-19T12:12:43.406Z,98222.28
2022-08-19T12:15:12.271Z,98252.28
2022-08-19T12:17:39.559Z,98235.72
2022-08-19T12:20:18.332Z,98237.16
2022-08-19T12:22:51.196Z,98246.84
2022-08-19T12:25:21.733Z,98226.28
2022-08-19T12:27:57.288Z,98236.75
2022-08-19T12:30:25.159Z,98258.66
2022-08-19T12:32:52.745Z,98259.53
2022-08-19T12:35:22.154Z,98230.78
2022-08-19T12:37:56.911Z,98252.97
2022-08-19T12:40:26.443Z,98244.91
2022-08-19T12:42:54.084Z,98236.38
2022-08-19T12:45:20.918Z,98225.28
2022-08-19T12:47:47.839Z,98236.84
2022-08-19T12:50:16.733Z,98237.13
2022-08-19T12:52:45.698Z,98239.94
2022-08-19T12:55:15.352Z,98215.56
2022-08-19T12:57:41.894Z,98228.38
2022-08-19T13:00:15.364Z,98228.47
2022-08-19T13:02:45.496Z,98237.75
2022-08-19T13:05:17.613Z,98230.25
2022-08-19T13:07:45.548Z,98220.41
2022-08-19T13:10:16.506Z,98219.38
2022-08-19T13:12:44.247Z,98225.28
2022-08-19T13:15:11.621Z,98226.88
2022-08-19T13:17:39.673Z,98218.09
2022-08-19T13:20:10.161Z,98226.13
2022-08-19T13:22:37.101Z,98216.63
2022-08-19T13:25:06.362Z,98231.69
2022-08-19T13:27:33.359Z,98226.78
2022-08-19T13:30:19.652Z,98219.19
2022-08-19T13:33:04.504Z,98217.50
2022-08-19T13:35:31.153Z,98223.03
2022-08-19T13:37:57.696Z,98213.44
2022-08-19T13:40:27.281Z,98235.50
2022-08-19T13:42:55.843Z,98220.69
2022-08-19T13:45:25.444Z,98212.09
2022-08-19T13:47:59.254Z,98232.91
2022-08-19T13:50:32.491Z,98206.84
2022-08-19T13:53:00.253Z,98201.16
2022-08-19T13:55:27.947Z,98214.66
2022-08-19T13:57:57.083Z,98221.56
2022-08-19T14:00:27.575Z,98223.19
2022-08-19T14:02:57.108Z,98200.63
2022-08-19T14:05:25.691Z,98209.94
2022-08-19T14:07:52.882Z,98204.28
2022-08-19T14:10:20.368Z,98197.66
2022-08-19T14:12:53.701Z,98200.63
2022-08-19T14:15:20.365Z,98195.44
2022-08-19T14:17:50.170Z,98205.13
2022-08-19T14:20:18.481Z,98194.38
2022-08-19T14:22:50.176Z,98205.78
2022-08-19T14:25:21.116Z,98201.44
2022-08-19T14:27:51.795Z,98187.31
2022-08-19T14:30:22.893Z,98190.00
2022-08-19T14:32:49.507Z,98194.31
2022-08-19T14:35:17.169Z,98197.09
2022-08-19T14:37:46.114Z,98197.06
2022-08-19T14:40:16.076Z,98200.19
2022-08-19T14:42:43.228Z,98194.94
2022-08-19T14:45:12.366Z,98200.28
2022-08-19T14:47:39.943Z,98205.91
2022-08-19T14:50:10.578Z,98194.13
2022-08-19T14:52:44.924Z,98204.13
2022-08-19T14:55:11.740Z,98199.09
2022-08-19T14:57:38.318Z,98198.03
2022-08-19T15:00:05.561Z,98191.28
2022-08-19T15:02:34.502Z,98195.59
2022-08-19T15:05:01.790Z,98167.53
2022-08-19T15:07:29.628Z,98174.84
2022-08-19T15:09:56.706Z,98192.06
2022-08-19T15:12:23.604Z,98161.63
2022-08-19T15:14:56.216Z,98181.81
2022-08-19T15:17:28.049Z,98168.44
2022-08-19T15:20:13.646Z,98182.47
2022-08-19T15:22:40.986Z,98178.88
2022-08-19T15:25:09.102Z,98178.91
2022-08-19T15:27:39.994Z,98167.50
2022-08-19T15:30:09.465Z,98164.06
2022-08-19T15:32:37.365Z,98168.53
2022-08-19T15:35:06.005Z,98170.69
2022-08-19T15:37:36.954Z,98180.22
2022-08-19T15:40:05.403Z,98177.75
2022-08-19T15:42:32.411Z,98175.03
2022-08-19T15:45:00.500Z,98176.03
2022-08-19T15:47:35.393Z,98181.38
2022-08-19T15:50:29.125Z,98171.16
2022-08-19T15:52:58.657Z,98175.97
2022-08-19T15:55:33.521Z,98174.50
2022-08-19T15:58:28.435Z,98170.09
2022-08-19T16:01:20.709Z,98168.69
2022-08-19T16:04:14.679Z,98160.34
2022-08-19T16:06:51.502Z,98161.56
2022-08-19T16:09:25.086Z,98173.16
2022-08-19T16:11:56.937Z,98162.19
2022-08-19T16:14:26.672Z,98176.34
2022-08-19T16:16:57.060Z,98151.78
2022-08-19T16:19:27.567Z,98167.38
2022-08-19T16:21:56.427Z,98165.72
2022-08-19T16:24:27.624Z,98157.25
2022-08-19T16:26:56.059Z,98162.09
2022-08-19T16:29:33.750Z,98174.28
2022-08-19T16:32:02.914Z,98158.19
2022-08-19T16:34:33.593Z,98174.06
2022-08-19T16:37:00.992Z,98170.81
2022-08-19T16:39:27.943Z,98178.34
2022-08-19T16:41:58.161Z,98174.16
2022-08-19T16:44:30.805Z,98173.22
2022-08-19T16:47:01.662Z,98171.41
2022-08-19T16:49:54.611Z,98167.13
2022-08-19T16:52:27.619Z,98149.16
2022-08-19T16:54:57.652Z,98161.28
2022-08-19T16:57:26.957Z,98168.16
2022-08-19T16:59:53.930Z,98167.03
2022-08-19T17:02:29.795Z,98170.66
2022-08-19T17:04:59.028Z,98146.09
2022-08-19T17:07:27.918Z,98154.19
2022-08-19T17:09:57.481Z,98134.94
2022-08-19T17:12:31.816Z,98160.56
2022-08-19T17:15:01.501Z,98162.38
2022-08-19T17:17:29.782Z,98171.13
2022-08-19T17:19:57.676Z,98165.72
2022-08-19T17:22:27.383Z,98142.34
2022-08-19T17:24:57.963Z,98166.81
2022-08-19T17:27:32.100Z,98160.78
2022-08-19T17:30:00.344Z,98169.34
2022-08-19T17:32:27.304Z,98150.19
2022-08-19T17:34:56.965Z,98160.66
2022-08-19T17:37:23.615Z,98154.41
2022-08-19T17:39:50.353Z,98135.44
2022-08-19T17:42:17.020Z,98143.59
2022-08-19T17:44:46.872Z,98128.63
2022-08-19T17:47:18.101Z,98147.56
2022-08-19T17:49:44.762Z,98160.09
2022-08-19T17:52:11.975Z,98161.47
2022-08-19T17:54:38.901Z,98122.75
2022-08-19T17:57:05.646Z,98142.09
2022-08-19T17:59:32.653Z,98164.56
2022-08-19T18:01:59.837Z,98154.25
2022-08-19T18:04:29.468Z,98165.59
2022-08-19T18:06:57.027Z,98175.50
2022-08-19T18:09:41.947Z,98170.81
2022-08-19T18:12:11.418Z,98183.19
2022-08-19T18:14:39.255Z,98171.97
2022-08-19T18:17:09.988Z,98181.94
2022-08-19T18:19:43.379Z,98191.38
2022-08-19T18:22:30.594Z,98190.97
2022-08-19T18:24:58.489Z,98186.22
2022-08-19T18:29:58.038Z,98188.75
2022-08-19T18:32:27.163Z,98190.31
2022-08-19T18:34:54.699Z,98202.91
2022-08-19T18:37:21.746Z,98201.28
2022-08-19T18:40:06.974Z,98199.47
2022-08-19T18:42:52.056Z,98215.56
2022-08-19T18:45:37.479Z,98253.53
2022-08-19T18:48:26.803Z,98274.75
2022-08-19T18:50:59.063Z,98272.44
2022-08-19T18:53:28.147Z,98264.66
2022-08-19T18:55:55.351Z,98278.47
2022-08-19T18:58:32.060Z,98277.56
2022-08-19T19:01:16.723Z,98279.88
2022-08-19T19:03:46.686Z,98276.72
2022-08-19T19:06:25.604Z,98282.19
2022-08-19T19:08:55.086Z,98280.41
2022-08-19T19:11:26.146Z,98269.22
2022-08-19T19:13:53.251Z,98280.00
2022-08-19T19:16:24.397Z,98281.69
2022-08-19T19:18:53.772Z,98255.50
2022-08-19T19:21:23.257Z,98282.47
2022-08-19T19:23:51.346Z,98265.44
2022-08-19T19:26:18.213Z,98280.69
2022-08-19T19:28:47.864Z,98268.19
2022-08-19T19:31:29.404Z,98282.47
2022-08-19T19:33:56.226Z,98276.75
2022-08-19T19:36:24.010Z,98288.66
2022-08-19T19:38:50.895Z,98269.06
2022-08-19T19:41:24.141Z,98287.63
2022-08-19T19:44:23.270Z,98272.47
2022-08-19T19:46:42.695Z,98299.13
2022-08-19T19:49:10.183Z,98300.81
2022-08-19T19:51:39.508Z,98268.13
2022-08-19T19:54:13.687Z,98259.09
2022-08-19T19:56:45.055Z,98293.03
2022-08-19T19:59:12.131Z,98279.13
2022-08-19T20:01:38.725Z,98285.91
2022-08-19T20:04:06.762Z,98304.84
2022-08-19T20:06:34.046Z,98294.75
2022-08-19T20:09:10.765Z,98307.69
2022-08-19T20:11:53.722Z,98294.19
2022-08-19T20:14:31.861Z,98291.66
2022-08-19T20:17:02.580Z,98280.81
2022-08-19T20:19:34.191Z,98307.81
2022-08-19T20:22:01.559Z,98259.41
2022-08-19T20:24:34.830Z,98304.22
2022-08-19T20:27:03.700Z,98263.41
2022-08-19T20:29:40.253Z,98290.56
2022-08-19T20:32:10.082Z,98293.25
2022-08-19T20:34:42.151Z,98300.50
2022-08-19T20:37:11.635Z,98308.31
2022-08-19T20:39:38.440Z,98296.88
2022-08-19T20:42:05.768Z,98322.16
2022-08-19T20:44:32.716Z,98289.94
2022-08-19T20:47:04.096Z,98311.00
2022-08-19T20:49:31.375Z,98317.72
2022-08-19T20:52:00.578Z,98315.09
2022-08-19T20:54:27.880Z,98320.53
2022-08-19T20:56:55.089Z,98317.00
2022-08-19T20:59:23.033Z,98308.78
2022-08-19T21:01:53.642Z,98295.91
2022-08-19T21:04:21.936Z,98322.59
2022-08-19T21:06:49.985Z,98291.03
2022-08-19T21:09:19.862Z,98291.59
2022-08-19T21:11:47.202Z,98304.78
2022-08-19T21:14:14.139Z,98311.34
2022-08-19T21:16:40.797Z,98299.72
2022-08-19T21:19:07.641Z,98309.09
2022-08-19T21:21:35.051Z,98306.06
2022-08-19T21:24:04.892Z,98291.63
2022-08-19T21:26:34.685Z,98286.56
2022-08-19T21:29:04.816Z,98307.94
2022-08-19T21:31:32.619Z,98299.84
2022-08-19T21:34:03.913Z,98284.88
2022-08-19T21:36:33.156Z,98272.75
2022-08-19T21:38:59.766Z,98285.75
2022-08-19T21:41:26.640Z,98279.13
2022-08-19T21:43:53.287Z,98288.22
2022-08-19T21:46:20.019Z,98288.34
2022-08-19T21:48:46.656Z,98292.81
2022-08-19T21:51:13.655Z,98286.56
2022-08-19T21:53:40.573Z,98286.34
2022-08-19T21:56:11.514Z,98294.41
2022-08-19T22:01:23.049Z,98298.19
2022-08-19T22:03:49.774Z,98300.69
2022-08-19T22:06:17.776Z,98303.53
2022-08-19T22:08:44.945Z,98303.53
2022-08-19T22:11:12.003Z,98302.31
2022-08-19T22:13:40.391Z,98278.28
2022-08-19T22:16:08.810Z,98307.16
2022-08-19T22:18:35.569Z,98310.88
2022-08-19T22:21:08.296Z,98294.09
2022-08-19T22:23:45.819Z,98303.84
2022-08-19T22:26:14.454Z,98318.47
2022-08-19T22:28:42.457Z,98314.81
2022-08-19T22:31:32.978Z,98321.13
2022-08-19T22:34:05.955Z,98302.63
2022-08-19T22:36:32.649Z,98314.22
2022-08-19T22:39:00.253Z,98302.47
2022-08-19T22:41:28.547Z,98306.81
2022-08-19T22:43:55.662Z,98293.81
2022-08-19T22:46:22.320Z,98287.22
2022-08-19T22:48:56.710Z,98290.06
2022-08-19T22:51:46.562Z,98303.78
2022-08-19T22:54:13.177Z,98302.75
2022-08-19T22:56:39.806Z,98289.19
2022-08-19T22:59:09.193Z,98313.31
2022-08-19T23:01:41.854Z,98263.03
2022-08-19T23:04:08.622Z,98280.34
2022-08-19T23:06:40.341Z,98305.00
2022-08-19T23:09:09.117Z,98308.44
2022-08-19T23:11:43.554Z,98266.06
2022-08-19T23:14:12.749Z,98304.94
2022-08-19T23:16:41.547Z,98312.78
2022-08-19T23:19:08.668Z,98307.94
2022-08-19T23:21:38.552Z,98299.91
2022-08-19T23:24:05.796Z,98301.78
2022-08-19T23:26:35.760Z,98279.44
2022-08-19T23:29:22.347Z,98299.53
2022-08-19T23:31:49.752Z,98300.19
2022-08-19T23:34:18.945Z,98289.06
2022-08-19T23:36:46.376Z,98281.66
2022-08-19T23:39:13.086Z,98277.31
2022-08-19T23:41:39.642Z,98279.50
2022-08-19T23:44:06.690Z,98260.75
2022-08-19T23:46:54.397Z,98270.88
2022-08-19T23:49:21.504Z,98261.97
2022-08-19T23:51:48.112Z,98249.88
2022-08-19T23:54:14.708Z,98268.34
2022-08-19T23:56:41.587Z,98269.97
2022-08-19T23:59:10.823Z,98270.16
